Time;durP1;ratioP1;P1;durP2;ratioP2;P2;SDS_P1;SDS_P2;PMS_P1;PMS_P2;Temp;Humidity;BMP_temperature;BMP_pressure;BME280_temperature;BME280_humidity;BME280_pressure;Samples;Min_cycle;Max_cycle;Signal;HPM_P1;HPM_P2
2023/12/11 00:01:44;;;;;;;;;;;;;;;;;;5085283;28;19916;-63
2023/12/11 00:04:11;;;;;;;;;;;;;;;;;;5089374;28;19993;-63
2023/12/11 00:06:37;;;;;;;;;;;;;;;;;;5090804;28;20371;-63
2023/12/11 00:09:03;;;;;;;;;;;;;;;;;;5079812;28;19912;-63
2023/12/11 00:11:29;;;;;;;;;;;;;;;;;;5090720;28;19940;-63
2023/12/11 00:13:55;;;;;;;;;;;;;;;;;;5087739;28;20284;-63
2023/12/11 00:16:21;;;;;;;;;;;;;;;;;;5084724;28;19918;-63
2023/12/11 00:18:48;;;;;;;;;;;;;;;;;;5087894;28;19912;-62
2023/12/11 00:21:14;;;;;;;;;;;;;;;;;;5085453;28;19976;-62
2023/12/11 00:23:40;;;;;;;;;;;;;;;;;;5084851;28;20379;-62
2023/12/11 00:26:06;;;;;;;;;;;;;;;;;;5090053;28;19951;-62
2023/12/11 00:28:32;;;;;;;;;;;;;;;;;;5074619;28;19920;-62
2023/12/11 00:30:58;;;;;;;;;;;;;;;;;;5083676;28;19923;-62
2023/12/11 00:33:24;;;;;;;;;;;;;;;;;;5092520;28;19912;-62
2023/12/11 00:35:50;;;;;;;;;;;;;;;;;;5081465;28;20257;-62
2023/12/11 00:38:16;;;;;;;;;;;;;;;;;;5074660;28;19947;-62
2023/12/11 00:40:42;;;;;;;;;;;;;;;;;;5084298;28;19965;-62
2023/12/11 00:43:08;;;;;;;;;;;;;;;;;;5090781;28;19916;-62
2023/12/11 00:45:34;;;;;;;;;;;;;;;;;;5084592;28;19939;-62
2023/12/11 00:48:00;;;;;;;;;;;;;;;;;;5093478;28;19919;-62
2023/12/11 00:50:25;;;;;;;;;;;;;;;;;;5076280;28;19908;-61
2023/12/11 00:52:51;;;;;;;;;;;;;;;;;;5084418;28;19912;-61
2023/12/11 00:55:17;;;;;;;;;;;;;;;;;;5089801;28;19908;-62
2023/12/11 00:57:43;;;;;;;;;;;;;;;;;;5078573;28;20024;-62
2023/12/11 01:00:09;;;;;;;;;;;;;;;;;;5080808;28;19940;-61
2023/12/11 01:02:35;;;;;;;;;;;;;;;;;;5081779;28;20368;-62
2023/12/11 01:05:02;;;;;;;;;;;;;;;;;;5083471;28;19920;-62
2023/12/11 01:07:28;;;;;;;;;;;;;;;;;;5084118;28;20387;-62
2023/12/11 01:09:53;;;;;;;;;;;;;;;;;;5073087;28;19955;-61
2023/12/11 01:12:19;;;;;;;;;;;;;;;;;;5087559;28;19922;-62
2023/12/11 01:14:45;;;;;;;;;;;;;;;;;;5087407;28;19915;-62
2023/12/11 01:17:11;;;;;;;;;;;;;;;;;;5083966;28;19984;-62
2023/12/11 01:19:37;;;;;;;;;;;;;;;;;;5088876;28;19912;-62
2023/12/11 01:22:03;;;;;;;;;;;;;;;;;;5084406;28;20035;-62
2023/12/11 01:24:29;;;;;;;;;;;;;;;;;;5081668;28;19908;-64
2023/12/11 01:26:55;;;;;;;;;;;;;;;;;;5083285;28;19920;-62
2023/12/11 01:29:21;;;;;;;;;;;;;;;;;;5091946;28;20396;-62
2023/12/11 01:31:47;;;;;;;;;;;;;;;;;;5088051;28;19965;-61
2023/12/11 01:34:12;;;;;;;;;;;;;;;;;;5091773;28;20344;-62
2023/12/11 01:36:39;;;;;;;;;;;;;;;;;;5089725;28;19926;-62
2023/12/11 01:39:05;;;;;;;;;;;;;;;;;;5081159;28;19916;-62
2023/12/11 01:41:31;;;;;;;;;;;;;;;;;;5083055;28;19916;-62
2023/12/11 01:43:56;;;;;;;;;;;;;;;;;;5076384;28;20006;-62
2023/12/11 01:46:23;;;;;;;;;;;;;;;;;;5085414;28;19912;-62
2023/12/11 01:48:49;;;;;;;;;;;;;;;;;;5077783;28;19920;-62
2023/12/11 01:51:15;;;;;;;;;;;;;;;;;;5089161;28;19912;-62
2023/12/11 01:53:41;;;;;;;;;;;;;;;;;;5084882;28;19978;-62
2023/12/11 01:56:07;;;;;;;;;;;;;;;;;;5073108;28;19909;-62
2023/12/11 01:58:34;;;;;;;;;;;;;;;;;;5078561;28;19916;-62
2023/12/11 02:01:00;;;;;;;;;;;;;;;;;;5080990;28;19968;-61
2023/12/11 02:03:26;;;;;;;;;;;;;;;;;;5083088;28;19955;-62
2023/12/11 02:05:51;;;;;;;;;;;;;;;;;;5079321;28;19913;-62
2023/12/11 02:08:17;;;;;;;;;;;;;;;;;;5085263;28;19913;-62
2023/12/11 02:10:44;;;;;;;;;;;;;;;;;;5091450;28;19923;-62
2023/12/11 02:13:10;;;;;;;;;;;;;;;;;;5092096;28;20036;-62
2023/12/11 02:15:36;;;;;;;;;;;;;;;;;;5079071;28;20028;-62
2023/12/11 02:18:01;;;;;;;;;;;;;;;;;;5079415;28;19935;-62
2023/12/11 02:20:27;;;;;;;;;;;;;;;;;;5085418;28;19955;-62
2023/12/11 02:22:53;;;;;;;;;;;;;;;;;;5080102;28;20372;-62
2023/12/11 02:25:19;;;;;;;;;;;;;;;;;;5084337;28;19919;-62
2023/12/11 02:27:45;;;;;;;;;;;;;;;;;;5081726;28;20360;-62
2023/12/11 02:30:11;;;;;;;;;;;;;;;;;;5088841;28;19976;-62
2023/12/11 02:32:37;;;;;;;;;;;;;;;;;;5084706;28;21670;-62
2023/12/11 02:35:03;;;;;;;;;;;;;;;;;;5091852;28;19916;-64
2023/12/11 02:37:29;;;;;;;;;;;;;;;;;;5080558;28;20319;-65
2023/12/11 02:39:54;;;;;;;;;;;;;;;;;;5088054;28;19952;-64
2023/12/11 02:42:20;;;;;;;;;;;;;;;;;;5079403;28;20371;-64
2023/12/11 02:44:46;;;;;;;;;;;;;;;;;;5077938;28;19912;-64
2023/12/11 02:47:12;;;;;;;;;;;;;;;;;;5086953;28;19912;-64
2023/12/11 02:49:38;;;;;;;;;;;;;;;;;;5071872;28;19916;-63
2023/12/11 02:52:04;;;;;;;;;;;;;;;;;;5086766;28;20295;-63
2023/12/11 02:54:30;;;;;;;;;;;;;;;;;;5084775;28;19962;-64
2023/12/11 02:56:56;;;;;;;;;;;;;;;;;;5076339;28;20049;-63
2023/12/11 02:59:22;;;;;;;;;;;;;;;;;;5088512;28;19916;-63
2023/12/11 03:01:48;;;;;;;;;;;;;;;;;;5080773;28;20391;-64
2023/12/11 03:04:13;;;;;;;;;;;;;;;;;;5074253;28;19960;-65
2023/12/11 03:06:39;;;;;;;;;;;;;;;;;;5079565;28;20287;-63
2023/12/11 03:09:05;;;;;;;;;;;;;;;;;;5082979;28;19918;-65
2023/12/11 03:11:31;;;;;;;;;;;;;;;;;;5086180;28;19933;-64
2023/12/11 03:13:57;;;;;;;;;;;;;;;;;;5084397;28;20367;-64
2023/12/11 03:16:23;;;;;;;;;;;;;;;;;;5080773;28;19919;-64
2023/12/11 03:18:49;;;;;;;;;;;;;;;;;;5072779;28;19923;-64
2023/12/11 03:21:15;;;;;;;;;;;;;;;;;;5090184;28;20454;-64
2023/12/11 03:23:41;;;;;;;;;;;;;;;;;;5093286;28;19923;-65
2023/12/11 03:26:07;;;;;;;;;;;;;;;;;;5093412;28;19943;-64
2023/12/11 03:28:32;;;;;;;;;;;;;;;;;;5086004;28;20007;-64
2023/12/11 03:30:58;;;;;;;;;;;;;;;;;;5091958;28;20291;-64
2023/12/11 03:33:24;;;;;;;;;;;;;;;;;;5086977;28;19914;-64
2023/12/11 03:35:50;;;;;;;;;;;;;;;;;;5093387;28;19912;-64
2023/12/11 03:38:16;;;;;;;;;;;;;;;;;;5078119;28;20383;-64
2023/12/11 03:40:42;;;;;;;;;;;;;;;;;;5084441;28;19953;-63
2023/12/11 03:43:08;;;;;;;;;;;;;;;;;;5077613;28;20349;-63
2023/12/11 03:45:34;;;;;;;;;;;;;;;;;;5082927;28;19965;-64
2023/12/11 03:48:00;;;;;;;;;;;;;;;;;;5085184;28;19943;-64
2023/12/11 03:50:26;;;;;;;;;;;;;;;;;;5079772;28;20003;-63
2023/12/11 03:52:52;;;;;;;;;;;;;;;;;;5087994;28;20793;-64
2023/12/11 03:55:18;;;;;;;;;;;;;;;;;;5081575;28;20023;-64
2023/12/11 03:57:44;;;;;;;;;;;;;;;;;;5085999;28;20009;-62
2023/12/11 04:00:10;;;;;;;;;;;;;;;;;;5086827;28;19944;-62
2023/12/11 04:02:35;;;;;;;;;;;;;;;;;;5082662;28;19966;-62
2023/12/11 04:05:01;;;;;;;;;;;;;;;;;;5087147;28;19954;-61
2023/12/11 04:07:28;;;;;;;;;;;;;;;;;;5079802;28;20408;-62
2023/12/11 04:09:54;;;;;;;;;;;;;;;;;;5082176;28;19908;-62
2023/12/11 04:12:20;;;;;;;;;;;;;;;;;;5077271;28;19956;-62
2023/12/11 04:14:46;;;;;;;;;;;;;;;;;;5091250;28;19915;-62
2023/12/11 04:17:12;;;;;;;;;;;;;;;;;;5075423;28;19920;-63
2023/12/11 04:19:38;;;;;;;;;;;;;;;;;;5073888;28;20418;-63
2023/12/11 04:22:04;;;;;;;;;;;;;;;;;;5077634;28;19916;-62
2023/12/11 04:24:30;;;;;;;;;;;;;;;;;;5083537;28;20011;-63
2023/12/11 04:26:56;;;;;;;;;;;;;;;;;;5078344;28;20578;-62
2023/12/11 04:29:22;;;;;;;;;;;;;;;;;;5079154;28;20034;-62
2023/12/11 04:31:48;;;;;;;;;;;;;;;;;;5078579;28;19916;-62
2023/12/11 04:34:13;;;;;;;;;;;;;;;;;;5079589;28;20011;-62
2023/12/11 04:36:39;;;;;;;;;;;;;;;;;;5091172;28;20003;-63
2023/12/11 04:39:05;;;;;;;;;;;;;;;;;;5085353;28;19974;-62
2023/12/11 04:41:31;;;;;;;;;;;;;;;;;;5072710;28;20000;-63
2023/12/11 04:43:57;;;;;;;;;;;;;;;;;;5082629;28;19919;-63
2023/12/11 04:46:23;;;;;;;;;;;;;;;;;;5083856;28;20287;-62
2023/12/11 04:48:49;;;;;;;;;;;;;;;;;;5091829;28;20009;-63
2023/12/11 04:51:15;;;;;;;;;;;;;;;;;;5076997;28;20192;-62
2023/12/11 04:53:41;;;;;;;;;;;;;;;;;;5092047;28;20029;-62
2023/12/11 04:56:06;;;;;;;;;;;;;;;;;;5076250;28;20036;-59
2023/12/11 04:58:32;;;;;;;;;;;;;;;;;;5081240;28;20003;-58
2023/12/11 05:00:58;;;;;;;;;;;;;;;;;;5090954;28;20402;-59
2023/12/11 05:03:24;;;;;;;;;;;;;;;;;;5081499;28;19989;-60
2023/12/11 05:05:50;;;;;;;;;;;;;;;;;;5075690;28;19948;-58
2023/12/11 05:08:16;;;;;;;;;;;;;;;;;;5088294;28;19912;-58
2023/12/11 05:10:42;;;;;;;;;;;;;;;;;;5075155;28;19909;-58
2023/12/11 05:13:08;;;;;;;;;;;;;;;;;;5085919;28;19952;-59
2023/12/11 05:15:34;;;;;;;;;;;;;;;;;;5080836;28;19927;-59
2023/12/11 05:17:59;;;;;;;;;;;;;;;;;;5090551;28;19916;-60
2023/12/11 05:20:25;;;;;;;;;;;;;;;;;;5086441;28;19958;-58
2023/12/11 05:22:51;;;;;;;;;;;;;;;;;;5085108;28;20277;-58
2023/12/11 05:25:17;;;;;;;;;;;;;;;;;;5088859;28;19998;-59
2023/12/11 05:27:43;;;;;;;;;;;;;;;;;;5081395;28;19920;-58
2023/12/11 05:30:09;;;;;;;;;;;;;;;;;;5086694;28;19916;-59
2023/12/11 05:32:35;;;;;;;;;;;;;;;;;;5076716;28;19912;-58
2023/12/11 05:35:01;;;;;;;;;;;;;;;;;;5078719;28;19966;-59
2023/12/11 05:37:27;;;;;;;;;;;;;;;;;;5086223;28;19996;-58
2023/12/11 05:39:53;;;;;;;;;;;;;;;;;;5085033;28;19917;-58
2023/12/11 05:42:19;;;;;;;;;;;;;;;;;;5078817;28;19920;-58
2023/12/11 05:44:45;;;;;;;;;;;;;;;;;;5086961;28;19963;-59
2023/12/11 05:47:10;;;;;;;;;;;;;;;;;;5080796;28;19920;-59
2023/12/11 05:49:36;;;;;;;;;;;;;;;;;;5084235;28;19923;-59
2023/12/11 05:52:02;;;;;;;;;;;;;;;;;;5088775;28;19948;-61
2023/12/11 05:54:28;;;;;;;;;;;;;;;;;;5076676;28;19947;-58
2023/12/11 05:56:54;;;;;;;;;;;;;;;;;;5083632;28;19955;-58
2023/12/11 05:59:20;;;;;;;;;;;;;;;;;;5086174;28;19962;-59
2023/12/11 06:01:47;;;;;;;;;;;;;;;;;;5086043;28;19944;-59
2023/12/11 06:04:13;;;;;;;;;;;;;;;;;;5085054;28;19922;-58
2023/12/11 06:06:39;;;;;;;;;;;;;;;;;;5084003;28;20018;-61
2023/12/11 06:09:05;;;;;;;;;;;;;;;;;;5078635;28;19923;-61
2023/12/11 06:11:31;;;;;;;;;;;;;;;;;;5071553;28;19921;-61
2023/12/11 06:13:57;;;;;;;;;;;;;;;;;;5075609;28;19939;-61
2023/12/11 06:16:23;;;;;;;;;;;;;;;;;;5085285;28;19912;-61
2023/12/11 06:18:49;;;;;;;;;;;;;;;;;;5082894;28;19957;-61
2023/12/11 06:21:14;;;;;;;;;;;;;;;;;;5081024;28;19965;-61
2023/12/11 06:23:40;;;;;;;;;;;;;;;;;;5084719;28;19970;-61
2023/12/11 06:26:06;;;;;;;;;;;;;;;;;;5091764;28;20003;-61
2023/12/11 06:28:32;;;;;;;;;;;;;;;;;;5079797;28;19947;-61
2023/12/11 06:30:58;;;;;;;;;;;;;;;;;;5079384;28;20324;-61
2023/12/11 06:33:24;;;;;;;;;;;;;;;;;;5080408;28;19912;-61
2023/12/11 06:35:50;;;;;;;;;;;;;;;;;;5077752;28;19914;-61
2023/12/11 06:38:16;;;;;;;;;;;;;;;;;;5073886;28;19951;-61
2023/12/11 06:40:42;;;;;;;;;;;;;;;;;;5085786;28;19914;-61
2023/12/11 06:43:07;;;;;;;;;;;;;;;;;;5079350;28;20371;-61
2023/12/11 06:45:33;;;;;;;;;;;;;;;;;;5077318;28;19951;-61
2023/12/11 06:47:59;;;;;;;;;;;;;;;;;;5077536;28;19942;-61
2023/12/11 06:50:25;;;;;;;;;;;;;;;;;;5079481;28;19908;-61
2023/12/11 06:52:51;;;;;;;;;;;;;;;;;;5081036;28;19947;-61
2023/12/11 06:55:17;;;;;;;;;;;;;;;;;;5088047;28;19998;-61
2023/12/11 06:57:43;;;;;;;;;;;;;;;;;;5088649;28;19912;-61
2023/12/11 07:00:09;;;;;;;;;;;;;;;;;;5080031;28;20379;-61
2023/12/11 07:02:35;;;;;;;;;;;;;;;;;;5087743;28;19982;-61
2023/12/11 07:05:01;;;;;;;;;;;;;;;;;;5083074;28;20384;-61
2023/12/11 07:07:27;;;;;;;;;;;;;;;;;;5083197;28;19912;-61
2023/12/11 07:09:53;;;;;;;;;;;;;;;;;;5090816;28;20283;-61
2023/12/11 07:12:19;;;;;;;;;;;;;;;;;;5086217;28;19984;-61
2023/12/11 07:14:45;;;;;;;;;;;;;;;;;;5087926;28;19956;-62
2023/12/11 07:17:11;;;;;;;;;;;;;;;;;;5084175;28;19916;-62
2023/12/11 07:19:37;;;;;;;;;;;;;;;;;;5088030;28;20034;-61
2023/12/11 07:22:03;;;;;;;;;;;;;;;;;;5082058;28;19959;-61
2023/12/11 07:24:29;;;;;;;;;;;;;;;;;;5088402;28;20068;-61
2023/12/11 07:26:55;;;;;;;;;;;;;;;;;;5088837;28;20463;-61
2023/12/11 07:29:21;;;;;;;;;;;;;;;;;;5087386;28;19956;-62
2023/12/11 07:31:46;;;;;;;;;;;;;;;;;;5083548;28;19920;-61
2023/12/11 07:34:12;;;;;;;;;;;;;;;;;;5086399;28;19912;-61
2023/12/11 07:36:38;;;;;;;;;;;;;;;;;;5085402;28;20003;-61
2023/12/11 07:39:05;;;;;;;;;;;;;;;;;;5090637;28;19992;-61
2023/12/11 07:41:31;;;;;;;;;;;;;;;;;;5082428;28;19923;-61
2023/12/11 07:43:58;;;;;;;;;;;;;;;;;;5084962;28;20018;-61
2023/12/11 07:46:23;;;;;;;;;;;;;;;;;;5086063;28;20411;-61
2023/12/11 07:48:49;;;;;;;;;;;;;;;;;;5082014;28;20045;-61
2023/12/11 07:51:16;;;;;;;;;;;;;;;;;;5086095;28;19947;-61
2023/12/11 07:53:42;;;;;;;;;;;;;;;;;;5084118;28;20398;-61
2023/12/11 07:56:08;;;;;;;;;;;;;;;;;;5085537;28;19931;-62
2023/12/11 07:58:33;;;;;;;;;;;;;;;;;;5086234;28;19948;-62
2023/12/11 08:01:00;;;;;;;;;;;;;;;;;;5086150;28;20294;-62
2023/12/11 08:03:26;;;;;;;;;;;;;;;;;;5083854;28;19924;-62
2023/12/11 08:05:52;;;;;;;;;;;;;;;;;;5088199;28;20395;-63
2023/12/11 08:08:18;;;;;;;;;;;;;;;;;;5089428;28;19955;-62
2023/12/11 08:10:44;;;;;;;;;;;;;;;;;;5079422;28;20291;-62
2023/12/11 08:13:09;;;;;;;;;;;;;;;;;;5089799;28;19922;-62
2023/12/11 08:15:35;;;;;;;;;;;;;;;;;;5086645;28;20338;-62
2023/12/11 08:18:03;;;;;;;;;;;;;;;;;;5085856;28;20003;-62
2023/12/11 08:20:30;;;;;;;;;;;;;;;;;;5086433;28;19973;-62
2023/12/11 08:22:56;;;;;;;;;;;;;;;;;;5092340;28;20389;-62
2023/12/11 08:25:22;;;;;;;;;;;;;;;;;;5088074;28;19964;-61
2023/12/11 08:27:48;;;;;;;;;;;;;;;;;;5092185;28;20026;-61
2023/12/11 08:30:14;;;;;;;;;;;;;;;;;;5091062;28;19912;-61
2023/12/11 08:32:40;;;;;;;;;;;;;;;;;;5082015;28;19963;-61
2023/12/11 08:35:06;;;;;;;;;;;;;;;;;;5085704;28;19912;-61
2023/12/11 08:37:32;;;;;;;;;;;;;;;;;;5079736;28;19966;-61
2023/12/11 08:39:58;;;;;;;;;;;;;;;;;;5084944;28;19912;-61
2023/12/11 08:42:23;;;;;;;;;;;;;;;;;;5088845;28;19958;-61
2023/12/11 08:44:49;;;;;;;;;;;;;;;;;;5093021;28;19934;-61
2023/12/11 08:47:15;;;;;;;;;;;;;;;;;;5085382;28;19922;-61
2023/12/11 08:49:42;;;;;;;;;;;;;;;;;;5084548;28;19920;-61
2023/12/11 08:52:08;;;;;;;;;;;;;;;;;;5088170;28;20011;-62
2023/12/11 08:54:34;;;;;;;;;;;;;;;;;;5084936;28;20012;-61
2023/12/11 08:57:00;;;;;;;;;;;;;;;;;;5082334;28;19912;-61
2023/12/11 08:59:26;;;;;;;;;;;;;;;;;;5079343;28;19919;-62
2023/12/11 09:01:52;;;;;;;;;;;;;;;;;;5082950;28;19939;-62
2023/12/11 09:04:18;;;;;;;;;;;;;;;;;;5086871;28;19920;-62
2023/12/11 09:06:44;;;;;;;;;;;;;;;;;;5076373;28;20391;-62
2023/12/11 09:09:09;;;;;;;;;;;;;;;;;;5090388;28;20009;-62
2023/12/11 09:11:35;;;;;;;;;;;;;;;;;;5086654;28;19958;-61
2023/12/11 09:14:01;;;;;;;;;;;;;;;;;;5084196;28;20020;-61
2023/12/11 09:16:27;;;;;;;;;;;;;;;;;;5089159;28;19912;-62
2023/12/11 09:18:53;;;;;;;;;;;;;;;;;;5086296;28;20398;-61
2023/12/11 09:21:19;;;;;;;;;;;;;;;;;;5082525;28;19958;-61
2023/12/11 09:23:45;;;;;;;;;;;;;;;;;;5080716;28;20434;-61
2023/12/11 09:26:11;;;;;;;;;;;;;;;;;;5083322;28;20411;-61
2023/12/11 09:28:39;;;;;;;;;;;;;;;;;;5080700;28;19962;-61
2023/12/11 09:31:05;;;;;;;;;;;;;;;;;;5083631;28;19928;-61
2023/12/11 09:33:30;;;;;;;;;;;;;;;;;;5078876;28;19952;-61
2023/12/11 09:35:56;;;;;;;;;;;;;;;;;;5081734;28;19922;-61
2023/12/11 09:38:22;;;;;;;;;;;;;;;;;;5083703;28;19912;-61
2023/12/11 09:40:48;;;;;;;;;;;;;;;;;;5070651;28;19966;-61
2023/12/11 09:43:14;;;;;;;;;;;;;;;;;;5073551;28;20011;-62
2023/12/11 09:45:40;;;;;;;;;;;;;;;;;;5078498;28;20395;-61
2023/12/11 09:48:06;;;;;;;;;;;;;;;;;;5080492;28;19955;-61
2023/12/11 09:50:32;;;;;;;;;;;;;;;;;;5083724;28;20270;-61
2023/12/11 09:52:58;;;;;;;;;;;;;;;;;;5079712;28;19917;-61
2023/12/11 09:55:25;;;;;;;;;;;;;;;;;;5077587;28;19916;-61
2023/12/11 09:57:51;;;;;;;;;;;;;;;;;;5081702;28;19919;-61
2023/12/11 10:00:17;;;;;;;;;;;;;;;;;;5090302;28;20364;-61
2023/12/11 10:02:43;;;;;;;;;;;;;;;;;;5080219;28;20385;-61
2023/12/11 10:05:09;;;;;;;;;;;;;;;;;;5090980;28;19915;-63
2023/12/11 10:07:35;;;;;;;;;;;;;;;;;;5091033;28;19935;-61
2023/12/11 10:10:01;;;;;;;;;;;;;;;;;;5086924;28;19987;-62
2023/12/11 10:12:27;;;;;;;;;;;;;;;;;;5091108;28;20344;-62
2023/12/11 10:14:53;;;;;;;;;;;;;;;;;;5091612;28;19965;-61
2023/12/11 10:17:19;;;;;;;;;;;;;;;;;;5083627;28;19912;-61
2023/12/11 10:19:44;;;;;;;;;;;;;;;;;;5083304;28;19955;-62
2023/12/11 10:22:10;;;;;;;;;;;;;;;;;;5088530;28;20049;-61
2023/12/11 10:24:36;;;;;;;;;;;;;;;;;;5088883;28;19918;-61
2023/12/11 10:27:03;;;;;;;;;;;;;;;;;;5074646;28;19920;-61
2023/12/11 10:29:32;;;;;;;;;;;;;;;;;;5089654;28;19952;-61
2023/12/11 10:31:57;;;;;;;;;;;;;;;;;;5089208;28;19912;-61
2023/12/11 10:34:23;;;;;;;;;;;;;;;;;;5082500;28;19956;-61
2023/12/11 10:36:50;;;;;;;;;;;;;;;;;;5089559;28;20010;-61
2023/12/11 10:39:16;;;;;;;;;;;;;;;;;;5082554;28;20335;-61
2023/12/11 10:41:45;;;;;;;;;;;;;;;;;;5089087;28;20007;-61
2023/12/11 10:44:11;;;;;;;;;;;;;;;;;;5081465;28;20030;-61
2023/12/11 10:46:37;;;;;;;;;;;;;;;;;;5079444;28;19912;-62
2023/12/11 10:49:03;;;;;;;;;;;;;;;;;;5077970;28;20390;-61
2023/12/11 10:51:29;;;;;;;;;;;;;;;;;;5081411;28;19912;-61
2023/12/11 10:53:55;;;;;;;;;;;;;;;;;;5079145;28;20287;-62
2023/12/11 10:56:21;;;;;;;;;;;;;;;;;;5088871;28;19912;-62
2023/12/11 10:58:47;;;;;;;;;;;;;;;;;;5088003;28;20002;-62
2023/12/11 11:01:13;;;;;;;;;;;;;;;;;;5084296;28;20025;-62
2023/12/11 11:03:39;;;;;;;;;;;;;;;;;;5083637;28;19996;-63
2023/12/11 11:06:05;;;;;;;;;;;;;;;;;;5080237;28;20352;-63
2023/12/11 11:08:31;;;;;;;;;;;;;;;;;;5088847;28;19916;-62
2023/12/11 11:10:57;;;;;;;;;;;;;;;;;;5094160;28;19981;-62
2023/12/11 11:13:23;;;;;;;;;;;;;;;;;;5083790;28;20324;-61
2023/12/11 11:15:49;;;;;;;;;;;;;;;;;;5083792;28;19922;-62
2023/12/11 11:18:15;;;;;;;;;;;;;;;;;;5083448;28;19913;-62
2023/12/11 11:20:41;;;;;;;;;;;;;;;;;;5084140;28;19962;-62
2023/12/11 11:23:07;;;;;;;;;;;;;;;;;;5094882;28;19987;-63
2023/12/11 11:25:33;;;;;;;;;;;;;;;;;;5092780;28;21086;-62
2023/12/11 11:27:59;;;;;;;;;;;;;;;;;;5078884;28;19977;-62
2023/12/11 11:30:25;;;;;;;;;;;;;;;;;;5091832;28;19915;-62
2023/12/11 11:32:51;;;;;;;;;;;;;;;;;;5086401;28;19913;-62
2023/12/11 11:35:17;;;;;;;;;;;;;;;;;;5092337;28;19987;-62
2023/12/11 11:37:42;;;;;;;;;;;;;;;;;;5086852;28;19965;-62
2023/12/11 11:40:08;;;;;;;;;;;;;;;;;;5091419;28;19908;-62
2023/12/11 11:42:34;;;;;;;;;;;;;;;;;;5094548;28;20336;-62
2023/12/11 11:45:00;;;;;;;;;;;;;;;;;;5093667;28;20433;-62
2023/12/11 11:47:26;;;;;;;;;;;;;;;;;;5078901;28;19916;-62
2023/12/11 11:49:53;;;;;;;;;;;;;;;;;;5078851;28;19956;-63
2023/12/11 11:52:19;;;;;;;;;;;;;;;;;;5088794;28;19908;-62
2023/12/11 11:54:45;;;;;;;;;;;;;;;;;;5083011;28;19908;-62
2023/12/11 11:57:11;;;;;;;;;;;;;;;;;;5082545;28;21616;-62
2023/12/11 11:59:36;;;;;;;;;;;;;;;;;;5083745;28;20344;-62
2023/12/11 12:02:03;;;;;;;;;;;;;;;;;;5087416;28;20002;-62
2023/12/11 12:04:29;;;;;;;;;;;;;;;;;;5072973;28;20003;-63
2023/12/11 12:06:55;;;;;;;;;;;;;;;;;;5092101;28;19912;-62
2023/12/11 12:09:21;;;;;;;;;;;;;;;;;;5086321;28;20390;-63
2023/12/11 12:11:46;;;;;;;;;;;;;;;;;;5080944;28;19918;-62
2023/12/11 12:14:13;;;;;;;;;;;;;;;;;;5093811;28;20251;-62
2023/12/11 12:16:38;;;;;;;;;;;;;;;;;;5093832;28;19915;-63
2023/12/11 12:19:05;;;;;;;;;;;;;;;;;;5088195;28;19952;-62
2023/12/11 12:21:32;;;;;;;;;;;;;;;;;;5093503;28;19908;-62
2023/12/11 12:23:57;;;;;;;;;;;;;;;;;;5086627;28;20295;-62
2023/12/11 12:26:23;;;;;;;;;;;;;;;;;;5091183;28;19955;-62
2023/12/11 12:28:49;;;;;;;;;;;;;;;;;;5093228;28;19912;-62
2023/12/11 12:31:15;;;;;;;;;;;;;;;;;;5086302;28;20316;-62
2023/12/11 12:33:41;;;;;;;;;;;;;;;;;;5073591;28;20326;-62
2023/12/11 12:36:07;;;;;;;;;;;;;;;;;;5088595;28;20001;-62
2023/12/11 12:38:33;;;;;;;;;;;;;;;;;;5078804;28;19916;-62
2023/12/11 12:40:59;;;;;;;;;;;;;;;;;;5077236;28;20406;-64
2023/12/11 12:43:26;;;;;;;;;;;;;;;;;;5092045;28;19955;-63
2023/12/11 12:45:51;;;;;;;;;;;;;;;;;;5091594;28;19908;-63
2023/12/11 12:48:17;;;;;;;;;;;;;;;;;;5088625;28;19969;-62
2023/12/11 12:50:43;;;;;;;;;;;;;;;;;;5071126;28;20018;-63
2023/12/11 12:53:10;;;;;;;;;;;;;;;;;;5087239;28;19918;-63
2023/12/11 12:55:36;;;;;;;;;;;;;;;;;;5084408;28;19922;-62
2023/12/11 12:58:02;;;;;;;;;;;;;;;;;;5092901;28;19908;-62
2023/12/11 13:00:28;;;;;;;;;;;;;;;;;;5079926;28;19946;-62
2023/12/11 13:02:54;;;;;;;;;;;;;;;;;;5085440;28;20366;-63
2023/12/11 13:05:20;;;;;;;;;;;;;;;;;;5082306;28;19926;-63
2023/12/11 13:07:46;;;;;;;;;;;;;;;;;;5087203;28;19916;-63
2023/12/11 13:10:13;;;;;;;;;;;;;;;;;;5084069;28;20049;-63
2023/12/11 13:12:39;;;;;;;;;;;;;;;;;;5079398;28;19916;-63
2023/12/11 13:15:06;;;;;;;;;;;;;;;;;;5092178;28;20399;-63
2023/12/11 13:17:33;;;;;;;;;;;;;;;;;;5086770;28;19916;-62
2023/12/11 13:19:59;;;;;;;;;;;;;;;;;;5080831;28;19920;-62
2023/12/11 13:22:25;;;;;;;;;;;;;;;;;;5078420;28;20375;-62
2023/12/11 13:24:51;;;;;;;;;;;;;;;;;;5090050;28;19951;-63
2023/12/11 13:27:17;;;;;;;;;;;;;;;;;;5086671;28;19921;-63
2023/12/11 13:29:44;;;;;;;;;;;;;;;;;;5078315;28;19935;-62
2023/12/11 13:32:12;;;;;;;;;;;;;;;;;;5078335;28;20395;-63
2023/12/11 13:34:38;;;;;;;;;;;;;;;;;;5086590;28;20352;-62
2023/12/11 13:37:04;;;;;;;;;;;;;;;;;;5083150;28;19999;-63
2023/12/11 13:39:30;;;;;;;;;;;;;;;;;;5090295;28;19920;-63
2023/12/11 13:41:56;;;;;;;;;;;;;;;;;;5087419;28;19961;-63
2023/12/11 13:44:22;;;;;;;;;;;;;;;;;;5078634;28;19965;-63
2023/12/11 13:46:48;;;;;;;;;;;;;;;;;;5079955;28;19969;-63
2023/12/11 13:49:14;;;;;;;;;;;;;;;;;;5084478;28;19912;-62
2023/12/11 13:51:40;;;;;;;;;;;;;;;;;;5081975;28;19993;-63
2023/12/11 13:54:06;;;;;;;;;;;;;;;;;;5084051;28;19920;-63
2023/12/11 13:56:33;;;;;;;;;;;;;;;;;;5089865;28;19919;-63
2023/12/11 13:58:59;;;;;;;;;;;;;;;;;;5081298;28;20299;-62
2023/12/11 14:01:25;;;;;;;;;;;;;;;;;;5088133;28;19919;-63
2023/12/11 14:03:52;;;;;;;;;;;;;;;;;;5087422;28;19963;-62
2023/12/11 14:06:18;;;;;;;;;;;;;;;;;;5080162;28;19916;-63
2023/12/11 14:08:43;;;;;;;;;;;;;;;;;;5090294;28;20342;-63
2023/12/11 14:11:09;;;;;;;;;;;;;;;;;;5088105;28;19920;-62
2023/12/11 14:13:35;;;;;;;;;;;;;;;;;;5082699;28;20011;-62
2023/12/11 14:16:01;;;;;;;;;;;;;;;;;;5079953;28;19913;-62
2023/12/11 14:18:30;;;;;;;;;;;;;;;;;;5085757;28;19911;-63
2023/12/11 14:20:55;;;;;;;;;;;;;;;;;;5084471;28;20064;-62
2023/12/11 14:23:21;;;;;;;;;;;;;;;;;;5090618;28;19966;-62
2023/12/11 14:25:48;;;;;;;;;;;;;;;;;;5079348;28;19951;-59
2023/12/11 14:28:14;;;;;;;;;;;;;;;;;;5081323;28;19923;-59
2023/12/11 14:30:40;;;;;;;;;;;;;;;;;;5089916;28;20354;-59
2023/12/11 14:33:06;;;;;;;;;;;;;;;;;;5086130;28;19995;-59
2023/12/11 14:35:32;;;;;;;;;;;;;;;;;;5080585;28;19934;-59
2023/12/11 14:37:58;;;;;;;;;;;;;;;;;;5083431;28;20672;-59
2023/12/11 14:40:24;;;;;;;;;;;;;;;;;;5078565;28;19995;-61
2023/12/11 14:42:50;;;;;;;;;;;;;;;;;;5079214;28;20011;-60
2023/12/11 14:45:17;;;;;;;;;;;;;;;;;;5086600;28;19964;-58
2023/12/11 14:47:42;;;;;;;;;;;;;;;;;;5076658;28;19916;-59
2023/12/11 14:50:08;;;;;;;;;;;;;;;;;;5083106;28;19999;-59
2023/12/11 14:52:34;;;;;;;;;;;;;;;;;;5079682;28;20257;-62
2023/12/11 14:55:00;;;;;;;;;;;;;;;;;;5086755;28;20387;-60
2023/12/11 14:57:26;;;;;;;;;;;;;;;;;;5091645;28;19912;-59
2023/12/11 14:59:52;;;;;;;;;;;;;;;;;;5078305;28;20403;-59
2023/12/11 15:02:18;;;;;;;;;;;;;;;;;;5081165;28;19969;-60
2023/12/11 15:04:44;;;;;;;;;;;;;;;;;;5082623;28;19959;-59
2023/12/11 15:07:11;;;;;;;;;;;;;;;;;;5081372;28;20445;-60
2023/12/11 15:09:39;;;;;;;;;;;;;;;;;;5082351;28;19912;-60
2023/12/11 15:12:05;;;;;;;;;;;;;;;;;;5084475;28;21249;-59
2023/12/11 15:14:31;;;;;;;;;;;;;;;;;;5074666;28;19960;-59
2023/12/11 15:16:57;;;;;;;;;;;;;;;;;;5081298;28;20330;-60
2023/12/11 15:19:23;;;;;;;;;;;;;;;;;;5088257;28;19927;-60
2023/12/11 15:21:49;;;;;;;;;;;;;;;;;;5090007;28;19921;-60
2023/12/11 15:24:15;;;;;;;;;;;;;;;;;;5082131;28;19924;-59
2023/12/11 15:26:41;;;;;;;;;;;;;;;;;;5091967;28;19927;-60
2023/12/11 15:29:07;;;;;;;;;;;;;;;;;;5087250;28;19940;-61
2023/12/11 15:31:33;;;;;;;;;;;;;;;;;;5091354;28;20352;-60
2023/12/11 15:34:00;;;;;;;;;;;;;;;;;;5093416;28;21533;-59
2023/12/11 15:36:27;;;;;;;;;;;;;;;;;;5080987;28;19966;-63
2023/12/11 15:38:52;;;;;;;;;;;;;;;;;;5085757;28;19946;-64
2023/12/11 15:41:18;;;;;;;;;;;;;;;;;;5085265;28;20332;-64
2023/12/11 15:43:47;;;;;;;;;;;;;;;;;;5085747;28;20007;-64
2023/12/11 15:46:13;;;;;;;;;;;;;;;;;;5085849;28;19952;-59
2023/12/11 15:48:43;;;;;;;;;;;;;;;;;;5083191;28;19916;-61
2023/12/11 15:51:11;;;;;;;;;;;;;;;;;;5093377;28;19915;-61
2023/12/11 15:53:37;;;;;;;;;;;;;;;;;;5087072;28;19912;-59
2023/12/11 15:56:03;;;;;;;;;;;;;;;;;;5088715;28;19948;-59
2023/12/11 15:58:29;;;;;;;;;;;;;;;;;;5093456;28;20375;-60
2023/12/11 16:00:55;;;;;;;;;;;;;;;;;;5088653;28;20003;-61
2023/12/11 16:03:21;;;;;;;;;;;;;;;;;;5084375;28;19977;-60
2023/12/11 16:05:47;;;;;;;;;;;;;;;;;;5079390;28;20376;-59
2023/12/11 16:08:12;;;;;;;;;;;;;;;;;;5090532;28;19912;-61
2023/12/11 16:10:38;;;;;;;;;;;;;;;;;;5079737;28;20257;-59
2023/12/11 16:13:04;;;;;;;;;;;;;;;;;;5091347;28;19955;-59
2023/12/11 16:15:31;;;;;;;;;;;;;;;;;;5089904;28;20073;-60
2023/12/11 16:17:57;;;;;;;;;;;;;;;;;;5093638;28;20272;-61
2023/12/11 16:20:23;;;;;;;;;;;;;;;;;;5093126;28;19958;-60
2023/12/11 16:22:49;;;;;;;;;;;;;;;;;;5085535;28;19970;-59
2023/12/11 16:25:14;;;;;;;;;;;;;;;;;;5087079;28;19989;-60
2023/12/11 16:27:40;;;;;;;;;;;;;;;;;;5088546;28;19921;-60
2023/12/11 16:30:06;;;;;;;;;;;;;;;;;;5090426;28;20269;-60
2023/12/11 16:32:32;;;;;;;;;;;;;;;;;;5089513;28;19912;-60
2023/12/11 16:34:58;;;;;;;;;;;;;;;;;;5082178;28;19930;-59
2023/12/11 16:37:24;;;;;;;;;;;;;;;;;;5084793;28;19919;-60